Observations for BENSON RAF, United Kingdom (EGUB)

EGUB 240920Z 20003KT 8000 HZ SCT070 BKN100 OVC250 20/17 Q1015 NOSIG RMK BLU BLU 
EGUB 240850Z 22003KT 8000 -RA FEW070 SCT100 OVC250 20/17 Q1015 NOSIG RMK BLU BLU
EGUB 240820Z 31002KT 7000 HZ FEW140 OVC250 20/17 Q1014 NOSIG RMK BLU BLU
EGUB 240750Z 28001KT 8000 HZ FEW070 SCT160 BKN250 20/17 Q1014 NOSIG RMK BLU BLU 
EGUB 240720Z 34001KT 7000 HZ SCT070 BKN160 19/17 Q1014 BECMG 9999 NSW RMK WHT BECMG BLU 
EGUB 240650Z 34002KT 7000 HZ SCT070 BKN160 18/16 Q1014 BECMG 9999 NSW RMK WHT BECMG BLU 
EGUB 240620Z 34002KT 7000 HZ FEW150 BKN180 18/16 Q1013 WHT BECMG 9999 NSW RMK WHT BECMG BLU 
EGUB 240550Z 30002KT 7000 HZ BKN180 17/15 Q1013 BECMG 9999 NSW RMK WHT BECMG BLU
EGUB 240450Z AUTO 00000KT 6000 // FEW210/// 16/15 Q1013 
EGUB 240350Z AUTO 35002KT 4600 // NCD 15/13 Q1013   
EGUB 240250Z AUTO 33002KT 7000 // FEW110/// 16/14 Q1013 
EGUB 240150Z AUTO 01002KT 8000 // FEW120/// 17/14 Q1013 
EGUB 240050Z AUTO 36001KT 9999 // FEW090/// BKN180/// 18/15 Q1014   
EGUB 232350Z AUTO 36005KT 9999 // BKN170/// 18/14 Q1013 
EGUB 232250Z AUTO 01004KT 9999 // FEW050/// BKN180/// 18/14 Q1014   
EGUB 232150Z AUTO 05003KT 9999 // FEW050/// BKN120/// 19/14 Q1014   
EGUB 232050Z AUTO 08010KT 9999 // FEW050/// BKN120/// BKN190/// 19/14 Q1014 
EGUB 231950Z AUTO 08011KT 9999 // BKN110/// 20/14 Q1014 
EGUB 231850Z AUTO 08010KT 9999 // OVC110/// 20/14 Q1014 
EGUB 231750Z AUTO 08008KT 9999 // BKN100/// 21/15 Q1014 
EGUB 231650Z AUTO 09008KT 9999 // SCT110/// 22/15 Q1015 
EGUB 231550Z AUTO 07008KT 9999 // BKN110/// 22/15 Q1015 
EGUB 231450Z AUTO 06008KT 9999 // FEW060/// 23/16 Q1015 
EGUB 231350Z AUTO 07010KT 9999 // BKN060/// 23/15 Q1015 
EGUB 231250Z AUTO 07010KT 9999 // BKN060/// 22/14 Q1015 
EGUB 231150Z AUTO 10012KT 9999 // BKN060/// 23/14 Q1016 
EGUB 231050Z AUTO 10012KT 9999 // BKN060/// 23/14 Q1016 
EGUB 230950Z AUTO 11009KT 9999 // BKN050/// 22/15 Q1017 
EGUB 230850Z AUTO 09005KT 9999 // FEW050/// 20/14 Q1018